createdAt,value
2018-09-03T00:01:12.039Z,8.47
2018-09-03T00:03:40.636Z,8.90
2018-09-03T00:06:09.320Z,8.97
2018-09-03T00:08:37.891Z,8.80
2018-09-03T00:11:06.532Z,8.77
2018-09-03T00:13:35.511Z,8.93
2018-09-03T00:16:04.151Z,9.63
2018-09-03T00:18:32.761Z,9.43
2018-09-03T00:21:02.215Z,9.30
2018-09-03T00:23:30.900Z,9.63
2018-09-03T00:25:59.715Z,9.63
2018-09-03T00:28:28.327Z,10.30
2018-09-03T00:31:01.091Z,10.07
2018-09-03T00:33:35.007Z,9.90
2018-09-03T00:36:09.011Z,10.23
2018-09-03T00:38:42.969Z,9.37
2018-09-03T00:41:16.783Z,9.93
2018-09-03T00:43:50.818Z,10.03
2018-09-03T00:46:24.707Z,9.60
2018-09-03T00:48:53.578Z,9.90
2018-09-03T00:51:22.255Z,10.07
2018-09-03T00:53:50.855Z,10.73
2018-09-03T00:56:19.596Z,10.07
2018-09-03T00:58:48.234Z,11.20
2018-09-03T01:01:16.878Z,11.33
2018-09-03T01:03:46.840Z,11.83
2018-09-03T01:06:15.423Z,11.63
2018-09-03T01:08:44.056Z,12.40
2018-09-03T01:11:12.716Z,11.40
2018-09-03T01:13:41.360Z,12.40
2018-09-03T01:16:10.053Z,12.90
2018-09-03T01:18:41.314Z,12.30
2018-09-03T01:21:10.919Z,12.23
2018-09-03T01:23:39.667Z,12.00
2018-09-03T01:26:08.876Z,12.20
2018-09-03T01:28:37.486Z,12.63
2018-09-03T01:31:06.244Z,12.63
2018-09-03T01:33:35.034Z,11.73
2018-09-03T01:36:03.659Z,12.07
2018-09-03T01:38:32.312Z,12.53
2018-09-03T01:41:01.056Z,13.20
2018-09-03T01:43:29.668Z,13.50
2018-09-03T01:45:58.261Z,13.17
2018-09-03T01:48:27.186Z,13.13
2018-09-03T01:50:55.834Z,13.67
2018-09-03T01:53:24.481Z,13.20
2018-09-03T01:55:53.159Z,13.77
2018-09-03T01:58:22.092Z,13.87
2018-09-03T02:00:50.821Z,13.73
2018-09-03T02:03:19.507Z,14.13
2018-09-03T02:05:48.281Z,13.50
2018-09-03T02:08:17.224Z,13.27
2018-09-03T02:10:46.107Z,14.20
2018-09-03T02:13:14.823Z,13.57
2018-09-03T02:15:43.497Z,13.03
2018-09-03T02:18:12.183Z,12.30
2018-09-03T02:20:42.021Z,12.27
2018-09-03T02:23:10.680Z,12.77
2018-09-03T02:25:39.437Z,14.63
2018-09-03T02:28:08.029Z,13.33
2018-09-03T02:30:39.049Z,13.23
2018-09-03T02:33:08.080Z,14.80
2018-09-03T02:35:36.714Z,13.27
2018-09-03T02:38:05.400Z,13.27
2018-09-03T02:40:34.045Z,13.00
2018-09-03T02:43:02.711Z,13.77
2018-09-03T02:45:31.535Z,13.83
2018-09-03T02:48:00.362Z,14.47
2018-09-03T02:50:29.151Z,14.70
2018-09-03T02:52:57.814Z,14.53
2018-09-03T02:55:26.926Z,14.83
2018-09-03T02:57:55.579Z,14.20
2018-09-03T03:00:26.847Z,15.10
2018-09-03T03:02:56.827Z,15.17
2018-09-03T03:05:25.750Z,14.80
2018-09-03T03:07:54.984Z,15.87
2018-09-03T03:10:23.666Z,15.13
2018-09-03T03:12:52.328Z,15.50
2018-09-03T03:15:20.970Z,16.53
2018-09-03T03:17:49.674Z,16.30
2018-09-03T03:20:18.395Z,15.87
2018-09-03T03:22:47.059Z,16.87
2018-09-03T03:25:15.686Z,16.87
2018-09-03T03:27:44.302Z,16.97
2018-09-03T03:30:12.983Z,16.63
2018-09-03T03:32:41.627Z,15.37
2018-09-03T03:35:11.566Z,17.00
2018-09-03T03:37:44.756Z,16.00
2018-09-03T03:40:13.578Z,16.93
2018-09-03T03:42:42.666Z,15.70
2018-09-03T03:45:11.593Z,16.37
2018-09-03T03:47:40.734Z,15.80
2018-09-03T03:50:09.967Z,16.87
2018-09-03T03:52:38.796Z,17.93
2018-09-03T03:55:08.071Z,17.73
2018-09-03T03:57:37.755Z,17.93
2018-09-03T04:00:06.697Z,18.10
2018-09-03T04:02:35.426Z,19.23
2018-09-03T04:05:04.112Z,19.30
2018-09-03T04:07:32.927Z,19.20
2018-09-03T04:10:01.843Z,18.87
2018-09-03T04:12:30.474Z,18.23
2018-09-03T04:14:59.218Z,20.30
2018-09-03T04:17:27.845Z,20.13
2018-09-03T04:20:01.645Z,19.23
2018-09-03T04:22:30.739Z,19.63
2018-09-03T04:24:59.392Z,19.03
2018-09-03T04:27:28.042Z,19.43
2018-09-03T04:29:56.826Z,19.77
2018-09-03T04:32:25.452Z,18.57
2018-09-03T04:34:54.345Z,19.00
2018-09-03T04:37:22.981Z,19.07
2018-09-03T04:39:51.848Z,18.40
2018-09-03T04:42:20.512Z,19.93
2018-09-03T04:44:49.430Z,18.23
2018-09-03T04:47:18.068Z,19.70
2018-09-03T04:49:46.923Z,19.77
2018-09-03T04:52:15.574Z,18.97
2018-09-03T04:54:44.269Z,19.13
2018-09-03T04:57:13.076Z,19.60
2018-09-03T04:59:41.665Z,20.77
2018-09-03T05:02:10.427Z,20.17
2018-09-03T05:04:39.080Z,20.20
2018-09-03T05:07:07.834Z,20.33
2018-09-03T05:09:36.921Z,20.53
2018-09-03T05:12:05.559Z,20.43
2018-09-03T05:14:34.235Z,20.10
2018-09-03T05:17:03.911Z,21.03
2018-09-03T05:19:32.642Z,20.37
2018-09-03T05:22:01.398Z,20.27
2018-09-03T05:24:30.035Z,20.20
2018-09-03T05:26:58.741Z,20.57
2018-09-03T05:29:27.425Z,20.57
2018-09-03T05:31:56.107Z,21.30
2018-09-03T05:34:24.733Z,20.87
2018-09-03T05:36:53.387Z,22.10
2018-09-03T05:39:22.014Z,20.07
2018-09-03T05:41:50.690Z,21.00
2018-09-03T05:44:19.332Z,20.90
2018-09-03T05:46:47.972Z,19.67
2018-09-03T05:49:16.862Z,22.20
2018-09-03T05:51:45.889Z,20.60
2018-09-03T05:54:14.551Z,21.03
2018-09-03T05:56:43.543Z,19.57
2018-09-03T05:59:12.537Z,19.63
2018-09-03T06:01:41.177Z,20.30
2018-09-03T06:04:10.081Z,18.80
2018-09-03T06:06:38.791Z,19.37
2018-09-03T06:09:09.643Z,19.50
2018-09-03T06:11:38.563Z,19.03
2018-09-03T06:14:07.535Z,18.80
2018-09-03T06:16:36.181Z,18.33
2018-09-03T06:19:04.901Z,18.97
2018-09-03T06:21:33.579Z,17.63
2018-09-03T06:24:02.503Z,17.23
2018-09-03T06:26:31.243Z,17.10
2018-09-03T06:29:00.277Z,17.90
2018-09-03T06:31:28.902Z,18.47
2018-09-03T06:33:57.603Z,18.50
2018-09-03T06:36:26.220Z,18.87
2018-09-03T06:38:54.885Z,16.77
2018-09-03T06:41:23.614Z,17.60
2018-09-03T06:43:52.393Z,16.53
2018-09-03T06:46:20.986Z,15.57
2018-09-03T06:48:50.014Z,16.37
2018-09-03T06:51:18.721Z,16.03
2018-09-03T06:53:47.709Z,17.40
2018-09-03T06:56:16.643Z,16.80
2018-09-03T06:58:45.247Z,16.03
2018-09-03T07:01:14.226Z,16.97
2018-09-03T07:03:43.609Z,17.27
2018-09-03T07:06:12.346Z,17.23
2018-09-03T07:08:41.698Z,17.33
2018-09-03T07:11:11.697Z,18.10
2018-09-03T07:13:40.479Z,17.50
2018-09-03T07:16:09.545Z,16.63
2018-09-03T07:18:38.270Z,16.50
2018-09-03T07:21:06.969Z,16.13
2018-09-03T07:23:35.842Z,16.33
2018-09-03T07:26:04.459Z,15.73
2018-09-03T07:28:33.174Z,12.73
2018-09-03T07:31:01.805Z,15.37
2018-09-03T07:33:30.471Z,14.93
2018-09-03T07:35:59.061Z,14.77
2018-09-03T07:38:27.809Z,13.57
2018-09-03T07:40:56.546Z,13.70
2018-09-03T07:43:25.542Z,13.67
2018-09-03T07:45:54.150Z,14.90
2018-09-03T07:48:22.773Z,16.00
2018-09-03T07:50:51.405Z,13.50
2018-09-03T07:53:20.100Z,14.80
2018-09-03T07:55:48.724Z,15.20
2018-09-03T07:58:17.549Z,14.90
2018-09-03T08:00:46.160Z,15.20
2018-09-03T08:03:14.839Z,15.00
2018-09-03T08:05:43.476Z,13.60
2018-09-03T08:08:12.063Z,15.30
2018-09-03T08:10:40.714Z,13.53
2018-09-03T08:13:09.423Z,14.53
2018-09-03T08:15:38.047Z,14.67
2018-09-03T08:18:06.812Z,14.57
2018-09-03T08:20:35.443Z,14.13
2018-09-03T08:23:04.080Z,14.73
2018-09-03T08:25:32.722Z,14.93
2018-09-03T08:28:01.492Z,15.47
2018-09-03T08:30:30.335Z,14.03
2018-09-03T08:32:59.019Z,13.57
2018-09-03T08:35:27.753Z,15.00
2018-09-03T08:37:56.566Z,15.73
2018-09-03T08:40:25.163Z,14.97
2018-09-03T08:42:53.792Z,15.10
2018-09-03T08:45:22.407Z,15.27
2018-09-03T08:47:51.076Z,13.83
2018-09-03T08:50:19.750Z,13.90
2018-09-03T08:52:48.396Z,12.60
2018-09-03T08:55:17.133Z,13.37
2018-09-03T08:57:45.811Z,14.47
2018-09-03T09:00:14.531Z,13.60
2018-09-03T09:02:43.135Z,15.00
2018-09-03T09:05:11.863Z,14.57
2018-09-03T09:07:40.815Z,15.10
2018-09-03T09:10:09.701Z,14.10
2018-09-03T09:12:38.970Z,13.50
2018-09-03T09:15:07.888Z,12.13
2018-09-03T09:17:36.546Z,12.97
2018-09-03T09:20:06.552Z,12.20
2018-09-03T09:22:35.238Z,12.13
2018-09-03T09:25:03.941Z,12.80
2018-09-03T09:27:32.594Z,13.03
2018-09-03T09:30:01.576Z,12.77
2018-09-03T09:32:30.539Z,12.40
2018-09-03T09:34:59.574Z,12.57
2018-09-03T09:37:28.522Z,11.90
2018-09-03T09:39:57.162Z,11.87
2018-09-03T09:42:25.854Z,11.53
2018-09-03T09:44:54.481Z,12.17
2018-09-03T09:47:23.178Z,12.13
2018-09-03T09:49:52.681Z,11.50
2018-09-03T09:52:21.710Z,13.00
2018-09-03T09:54:50.459Z,11.97
2018-09-03T09:57:19.362Z,11.20
2018-09-03T09:59:48.804Z,11.70
2018-09-03T10:02:17.461Z,10.97
2018-09-03T10:04:46.077Z,12.30
2018-09-03T10:07:15.042Z,10.77
2018-09-03T10:09:43.648Z,11.07
2018-09-03T10:12:12.274Z,10.50
2018-09-03T10:14:40.920Z,12.17
2018-09-03T10:17:09.626Z,10.63
2018-09-03T10:19:38.249Z,11.33
2018-09-03T10:22:07.101Z,11.20
2018-09-03T10:24:35.730Z,11.30
2018-09-03T10:27:04.430Z,10.67
2018-09-03T10:29:33.171Z,10.43
2018-09-03T10:32:02.011Z,10.80
2018-09-03T10:34:30.630Z,11.37
2018-09-03T10:36:59.232Z,12.30
2018-09-03T10:39:27.860Z,11.33
2018-09-03T10:41:56.531Z,10.30
2018-09-03T10:44:25.241Z,11.77
2018-09-03T10:46:53.908Z,10.93
2018-09-03T10:49:22.469Z,11.63
2018-09-03T10:51:51.122Z,11.23
2018-09-03T10:54:19.751Z,10.77
2018-09-03T10:56:48.453Z,11.53
2018-09-03T10:59:17.103Z,11.40
2018-09-03T11:01:45.752Z,10.70
2018-09-03T11:04:14.455Z,11.40
2018-09-03T11:06:43.328Z,11.50
2018-09-03T11:09:12.467Z,11.83
2018-09-03T11:11:41.391Z,11.87
2018-09-03T11:14:10.185Z,12.30
2018-09-03T11:16:38.846Z,12.47
2018-09-03T11:19:07.549Z,12.07
2018-09-03T11:21:36.386Z,11.17
2018-09-03T11:24:05.085Z,12.03
2018-09-03T11:26:33.752Z,11.97
2018-09-03T11:29:02.376Z,12.43
2018-09-03T11:31:31.091Z,12.67
2018-09-03T11:33:59.790Z,13.27
2018-09-03T11:36:28.432Z,13.30
2018-09-03T11:38:57.157Z,12.80
2018-09-03T11:41:25.926Z,13.77
2018-09-03T11:43:55.105Z,13.27
2018-09-03T11:46:23.751Z,12.97
2018-09-03T11:48:52.718Z,13.83
2018-09-03T11:51:21.657Z,14.30
2018-09-03T11:53:50.390Z,13.90
2018-09-03T11:56:19.098Z,15.50
2018-09-03T11:58:47.729Z,14.00
2018-09-03T12:01:16.569Z,12.57
2018-09-03T12:03:45.177Z,13.43
2018-09-03T12:06:13.795Z,15.07
2018-09-03T12:08:42.393Z,14.10
2018-09-03T12:11:11.015Z,14.27
2018-09-03T12:13:39.665Z,13.53
2018-09-03T12:16:12.301Z,17.60
2018-09-03T12:18:42.131Z,14.73
2018-09-03T12:21:11.666Z,15.60
2018-09-03T12:23:40.609Z,15.10
2018-09-03T12:26:09.789Z,15.60
2018-09-03T12:28:38.396Z,15.13
2018-09-03T12:31:07.339Z,17.33
2018-09-03T12:33:36.013Z,17.33
2018-09-03T12:36:05.613Z,17.47
2018-09-03T12:38:34.716Z,19.00
2018-09-03T12:41:03.481Z,17.63
2018-09-03T12:43:32.217Z,18.20
2018-09-03T12:46:02.161Z,17.97
2018-09-03T12:48:31.690Z,17.47
2018-09-03T12:51:01.298Z,17.73
2018-09-03T12:53:30.632Z,16.27
2018-09-03T12:55:59.290Z,17.47
2018-09-03T12:58:27.885Z,16.67
2018-09-03T13:00:56.606Z,18.07
2018-09-03T13:03:26.195Z,17.70
2018-09-03T13:05:54.908Z,18.03
2018-09-03T13:08:23.581Z,18.10
2018-09-03T13:10:52.215Z,19.87
2018-09-03T13:13:21.191Z,17.07
2018-09-03T13:15:49.871Z,16.23
2018-09-03T13:18:18.535Z,16.40
2018-09-03T13:20:47.637Z,16.83
2018-09-03T13:23:16.306Z,15.03
2018-09-03T13:25:44.915Z,16.07
2018-09-03T13:28:13.983Z,16.67
2018-09-03T13:30:42.582Z,17.37
2018-09-03T13:33:11.206Z,17.77
2018-09-03T13:35:39.859Z,19.63
2018-09-03T13:38:08.515Z,18.07
2018-09-03T13:40:37.427Z,17.17
2018-09-03T13:43:06.269Z,18.10
2018-09-03T13:45:34.973Z,17.73
2018-09-03T13:48:03.593Z,17.00
2018-09-03T13:50:32.196Z,19.40
2018-09-03T13:53:02.300Z,17.50
2018-09-03T13:55:31.350Z,18.23
2018-09-03T13:57:59.987Z,16.80
2018-09-03T14:00:28.880Z,18.93
2018-09-03T14:02:59.806Z,18.50
2018-09-03T14:05:28.446Z,17.23
2018-09-03T14:07:57.071Z,17.37
2018-09-03T14:10:25.717Z,16.63
2018-09-03T14:12:55.101Z,15.47
2018-09-03T14:15:24.620Z,17.00
2018-09-03T14:17:53.298Z,16.70
2018-09-03T14:20:22.148Z,17.10
2018-09-03T14:22:50.817Z,15.70
2018-09-03T14:25:19.497Z,17.20
2018-09-03T14:27:48.108Z,16.50
2018-09-03T14:30:16.776Z,16.90
2018-09-03T14:32:45.474Z,16.47
2018-09-03T14:35:14.152Z,15.60
2018-09-03T14:37:42.852Z,17.83
2018-09-03T14:40:11.505Z,16.63
2018-09-03T14:42:40.423Z,16.93
2018-09-03T14:45:09.361Z,17.17
2018-09-03T14:47:38.002Z,16.57
2018-09-03T14:50:07.017Z,16.67
2018-09-03T14:52:35.646Z,15.70
2018-09-03T14:55:04.403Z,16.53
2018-09-03T14:57:33.044Z,16.90
2018-09-03T15:00:01.881Z,16.07
2018-09-03T15:02:30.501Z,16.63
2018-09-03T15:04:59.205Z,17.67
2018-09-03T15:07:27.819Z,16.73
2018-09-03T15:09:56.474Z,16.43
2018-09-03T15:12:25.152Z,16.23
2018-09-03T15:14:53.780Z,16.03
2018-09-03T15:17:22.415Z,15.50
2018-09-03T15:19:51.089Z,16.67
2018-09-03T15:22:19.858Z,15.77
2018-09-03T15:24:48.515Z,16.90
2018-09-03T15:27:17.176Z,16.07
2018-09-03T15:29:45.880Z,16.47
2018-09-03T15:32:14.523Z,16.30
2018-09-03T15:34:43.169Z,16.40
2018-09-03T15:37:11.825Z,16.73
2018-09-03T15:39:40.570Z,16.67
2018-09-03T15:42:09.264Z,15.83
2018-09-03T15:44:37.909Z,15.83
2018-09-03T15:47:06.749Z,15.30
2018-09-03T15:49:35.724Z,16.23
2018-09-03T15:52:04.474Z,17.13
2018-09-03T15:54:33.204Z,15.37
2018-09-03T15:57:04.894Z,16.17
2018-09-03T15:59:34.077Z,15.83
2018-09-03T16:02:02.890Z,15.80
2018-09-03T16:04:31.511Z,16.23
2018-09-03T16:07:00.191Z,16.17
2018-09-03T16:09:28.836Z,16.30
2018-09-03T16:11:57.653Z,15.93
2018-09-03T16:14:26.308Z,15.63
2018-09-03T16:16:55.096Z,17.50
2018-09-03T16:19:23.856Z,16.40
2018-09-03T16:21:52.659Z,16.13
2018-09-03T16:24:21.425Z,15.53
2018-09-03T16:26:50.868Z,16.03
2018-09-03T16:29:19.518Z,16.33
2018-09-03T16:31:48.208Z,22.53
2018-09-03T16:34:16.782Z,19.93
2018-09-03T16:36:45.539Z,17.47
2018-09-03T16:39:14.239Z,16.37
2018-09-03T16:41:43.008Z,16.90
2018-09-03T16:44:11.717Z,18.07
2018-09-03T16:46:40.725Z,16.90
2018-09-03T16:49:09.478Z,16.30
2018-09-03T16:51:38.070Z,16.27
2018-09-03T16:54:06.887Z,17.00
2018-09-03T16:56:35.829Z,16.17
2018-09-03T16:59:04.537Z,15.57
2018-09-03T17:01:33.818Z,16.90
2018-09-03T17:04:02.189Z,16.20
2018-09-03T17:06:31.109Z,15.93
2018-09-03T17:08:59.773Z,16.10
2018-09-03T17:11:28.443Z,16.80
2018-09-03T17:13:57.345Z,15.80
2018-09-03T17:16:26.245Z,17.97
2018-09-03T17:18:54.898Z,18.77
2018-09-03T17:21:23.678Z,18.23
2018-09-03T17:23:53.150Z,17.77
2018-09-03T17:26:21.923Z,17.87
2018-09-03T17:28:50.735Z,16.87
2018-09-03T17:31:20.083Z,16.80
2018-09-03T17:33:48.696Z,17.37
2018-09-03T17:36:17.398Z,17.30
2018-09-03T17:38:46.113Z,18.47
2018-09-03T17:41:14.722Z,18.47
2018-09-03T17:43:43.528Z,17.57
2018-09-03T17:46:12.311Z,18.10
2018-09-03T17:48:41.081Z,22.47
2018-09-03T17:51:09.778Z,24.07
2018-09-03T17:53:38.497Z,19.23
2018-09-03T17:56:07.262Z,19.93
2018-09-03T17:58:35.965Z,18.60
2018-09-03T18:01:04.959Z,17.83
2018-09-03T18:03:33.739Z,20.20
2018-09-03T18:06:02.742Z,18.70
2018-09-03T18:08:31.649Z,20.50
2018-09-03T18:11:00.449Z,20.73
2018-09-03T18:13:29.123Z,19.83
2018-09-03T18:15:57.791Z,20.77
2018-09-03T18:18:26.579Z,20.27
2018-09-03T18:20:55.181Z,22.93
2018-09-03T18:23:23.840Z,22.23
2018-09-03T18:25:52.499Z,23.53
2018-09-03T18:28:21.105Z,21.83
2018-09-03T18:30:49.965Z,20.33
2018-09-03T18:33:18.619Z,20.03
2018-09-03T18:35:47.330Z,21.20
2018-09-03T18:38:16.069Z,21.63
2018-09-03T18:40:44.812Z,22.27
2018-09-03T18:43:13.496Z,23.97
2018-09-03T18:45:42.188Z,21.67
2018-09-03T18:48:10.905Z,21.63
2018-09-03T18:50:39.648Z,23.07
2018-09-03T18:53:09.101Z,22.57
2018-09-03T18:55:37.790Z,22.63
2018-09-03T18:58:06.557Z,22.67
2018-09-03T19:00:35.780Z,22.67
2018-09-03T19:03:04.451Z,23.43
2018-09-03T19:05:33.088Z,23.47
2018-09-03T19:08:01.769Z,24.40
2018-09-03T19:10:30.457Z,22.97
2018-09-03T19:12:59.213Z,23.00
2018-09-03T19:15:27.869Z,23.97
2018-09-03T19:17:56.857Z,23.47
2018-09-03T19:20:25.612Z,25.13
2018-09-03T19:22:54.271Z,25.67
2018-09-03T19:25:22.982Z,25.57
2018-09-03T19:27:51.708Z,26.87
2018-09-03T19:30:20.619Z,25.60
2018-09-03T19:32:49.340Z,25.60
2018-09-03T19:35:18.043Z,24.90
2018-09-03T19:37:46.764Z,25.37
2018-09-03T19:40:15.602Z,24.87
2018-09-03T19:42:44.263Z,25.20
2018-09-03T19:45:12.946Z,25.57
2018-09-03T19:47:41.595Z,26.30
2018-09-03T19:50:10.330Z,28.30
2018-09-03T19:52:38.979Z,26.93
2018-09-03T19:55:07.629Z,27.13
2018-09-03T19:57:36.510Z,27.17
2018-09-03T20:00:05.213Z,27.60
2018-09-03T20:02:33.823Z,28.40
2018-09-03T20:05:02.728Z,28.83
2018-09-03T20:07:31.502Z,31.73
2018-09-03T20:10:00.120Z,31.30
2018-09-03T20:12:28.854Z,30.50
2018-09-03T20:14:57.717Z,31.47
2018-09-03T20:17:26.441Z,30.50
2018-09-03T20:19:55.118Z,30.10
2018-09-03T20:22:24.984Z,31.07
2018-09-03T20:24:53.862Z,30.97
2018-09-03T20:27:22.488Z,30.40
2018-09-03T20:29:51.231Z,30.93
2018-09-03T20:32:19.885Z,33.23
2018-09-03T20:34:48.705Z,33.63
2018-09-03T20:37:17.668Z,35.57
2018-09-03T20:39:46.315Z,37.07
2018-09-03T20:42:14.924Z,36.03
2018-09-03T20:44:43.664Z,36.57
2018-09-03T20:47:12.271Z,36.00
2018-09-03T20:49:40.872Z,37.77
2018-09-03T20:52:09.559Z,37.07
2018-09-03T20:54:38.180Z,36.63
2018-09-03T20:57:06.843Z,36.77
2018-09-03T20:59:35.486Z,37.73
2018-09-03T21:02:04.199Z,36.37
2018-09-03T21:04:32.863Z,36.37
2018-09-03T21:07:01.851Z,37.77
2018-09-03T21:09:30.538Z,36.40
2018-09-03T21:11:59.209Z,37.67
2018-09-03T21:14:27.832Z,37.17
2018-09-03T21:16:56.443Z,35.37
2018-09-03T21:19:25.168Z,37.50
2018-09-03T21:21:53.945Z,35.73
2018-09-03T21:24:22.568Z,34.83
2018-09-03T21:26:51.211Z,36.17
2018-09-03T21:29:19.869Z,36.53
2018-09-03T21:31:48.838Z,36.30
2018-09-03T21:34:17.515Z,35.63
2018-09-03T21:36:46.843Z,36.00
2018-09-03T21:39:15.531Z,35.03
2018-09-03T21:41:44.733Z,34.33
2018-09-03T21:44:13.601Z,36.73
2018-09-03T21:46:42.190Z,33.73
2018-09-03T21:49:10.931Z,32.30
2018-09-03T21:51:40.032Z,32.73
2018-09-03T21:54:08.731Z,34.27
2018-09-03T21:56:37.416Z,32.90
2018-09-03T21:59:06.157Z,33.10
2018-09-03T22:01:34.796Z,33.63
2018-09-03T22:04:03.916Z,34.17
2018-09-03T22:06:32.847Z,34.50
2018-09-03T22:09:01.880Z,34.20
2018-09-03T22:11:30.560Z,33.60
2018-09-03T22:13:59.190Z,33.60
2018-09-03T22:16:27.972Z,30.67
2018-09-03T22:18:56.690Z,31.87
2018-09-03T22:21:25.608Z,33.87
2018-09-03T22:23:54.192Z,38.50
2018-09-03T22:26:22.805Z,38.13
2018-09-03T22:28:51.641Z,38.07
2018-09-03T22:31:20.311Z,39.73
2018-09-03T22:33:48.928Z,38.43
2018-09-03T22:36:17.528Z,38.53
2018-09-03T22:38:46.151Z,39.37
2018-09-03T22:41:14.778Z,39.00
2018-09-03T22:43:43.366Z,39.67
2018-09-03T22:46:12.107Z,39.53
2018-09-03T22:48:40.722Z,38.43
2018-09-03T22:51:09.378Z,37.30
2018-09-03T22:53:38.019Z,38.57
2018-09-03T22:56:06.670Z,39.10
2018-09-03T22:58:35.294Z,38.40
2018-09-03T23:01:04.031Z,38.33
2018-09-03T23:03:32.630Z,24.40
2018-09-03T23:06:01.357Z,22.67
2018-09-03T23:08:30.039Z,20.73
2018-09-03T23:10:58.649Z,20.87
2018-09-03T23:13:27.429Z,20.37
2018-09-03T23:15:56.085Z,20.47
2018-09-03T23:18:25.110Z,20.03
2018-09-03T23:20:53.736Z,19.37
2018-09-03T23:23:22.351Z,21.00
2018-09-03T23:25:51.059Z,20.47
2018-09-03T23:28:19.757Z,20.07
2018-09-03T23:30:48.594Z,19.27
2018-09-03T23:33:17.211Z,20.00
2018-09-03T23:35:45.920Z,18.73
2018-09-03T23:38:14.591Z,19.47
2018-09-03T23:40:43.324Z,19.83
2018-09-03T23:43:11.922Z,18.87
2018-09-03T23:45:40.537Z,19.30
2018-09-03T23:48:09.477Z,20.20
2018-09-03T23:50:38.198Z,18.70
2018-09-03T23:53:06.904Z,19.83
2018-09-03T23:55:35.648Z,19.03
2018-09-03T23:58:04.262Z,20.40
